createdAt,value
2024-01-31T00:33:33.115Z,37.90
2024-01-31T00:38:38.784Z,36.10
2024-01-31T00:43:44.500Z,35.80
2024-01-31T00:48:50.037Z,35.80
2024-01-31T00:53:55.704Z,35.00
2024-01-31T00:59:02.018Z,46.40
2024-01-31T01:04:09.860Z,43.10
2024-01-31T01:09:15.761Z,43.40
2024-01-31T01:14:21.733Z,46.90
2024-01-31T01:19:27.443Z,45.80
2024-01-31T01:24:33.066Z,41.60
2024-01-31T01:29:38.687Z,33.40
2024-01-31T01:34:44.445Z,35.60
2024-01-31T01:39:50.082Z,38.90
2024-01-31T01:44:55.823Z,40.60
2024-01-31T01:50:04.197Z,41.00
2024-01-31T01:55:10.819Z,41.50
2024-01-31T02:00:19.926Z,43.00
2024-01-31T02:05:26.947Z,36.30
2024-01-31T02:10:32.897Z,32.20
2024-01-31T02:15:38.653Z,34.70
2024-01-31T02:20:44.559Z,35.00
2024-01-31T02:25:50.650Z,33.90
2024-01-31T02:30:56.393Z,39.00
2024-01-31T02:36:02.014Z,30.90
2024-01-31T02:41:08.553Z,27.40
2024-01-31T02:46:14.419Z,30.00
2024-01-31T02:51:19.961Z,32.40
2024-01-31T02:56:25.503Z,33.80
2024-01-31T03:01:31.143Z,34.80
2024-01-31T03:06:36.844Z,34.10
2024-01-31T03:11:42.617Z,29.70
2024-01-31T03:16:48.336Z,25.80
2024-01-31T03:21:53.956Z,27.90
2024-01-31T03:27:00.207Z,32.90
2024-01-31T03:32:06.885Z,31.30
2024-01-31T03:37:12.599Z,30.80
2024-01-31T03:42:18.336Z,33.70
2024-01-31T03:47:24.036Z,34.10
2024-01-31T03:52:29.643Z,33.80
2024-01-31T03:57:35.645Z,30.90
2024-01-31T04:02:41.088Z,28.30
2024-01-31T04:07:47.402Z,30.60
2024-01-31T04:12:53.928Z,29.70
2024-01-31T04:18:02.265Z,29.90
2024-01-31T04:23:08.326Z,32.90
2024-01-31T04:28:16.546Z,29.40
2024-01-31T04:33:24.161Z,29.80
2024-01-31T04:38:30.380Z,26.40
2024-01-31T04:43:35.925Z,30.80
2024-01-31T04:48:42.723Z,27.90
2024-01-31T04:53:48.513Z,29.60
2024-01-31T04:58:54.114Z,33.90
2024-01-31T05:03:59.878Z,27.60
2024-01-31T05:09:05.888Z,27.10
2024-01-31T05:14:11.568Z,30.30
2024-01-31T05:19:17.659Z,33.10
2024-01-31T05:24:23.591Z,31.50
2024-01-31T05:29:29.540Z,33.00
2024-01-31T05:34:35.201Z,27.60
2024-01-31T05:39:41.191Z,33.50
2024-01-31T05:44:46.807Z,36.30
2024-01-31T05:49:52.812Z,30.90
2024-01-31T05:54:58.545Z,28.00
2024-01-31T06:00:11.285Z,32.00
2024-01-31T06:05:19.101Z,33.30
2024-01-31T06:10:26.273Z,36.30
2024-01-31T06:15:32.064Z,31.70
2024-01-31T06:20:41.771Z,36.90
2024-01-31T06:25:49.063Z,34.60
2024-01-31T06:31:00.946Z,28.50
2024-01-31T06:36:09.173Z,36.30
2024-01-31T06:41:16.243Z,35.90
2024-01-31T06:46:22.025Z,35.40
2024-01-31T06:51:27.919Z,35.10
2024-01-31T06:56:36.349Z,33.40
2024-01-31T07:01:42.542Z,35.00
2024-01-31T07:06:48.384Z,36.60
2024-01-31T07:11:54.341Z,38.20
2024-01-31T07:16:59.880Z,33.60
2024-01-31T07:22:05.863Z,35.50
2024-01-31T07:27:11.770Z,30.10
2024-01-31T07:32:17.363Z,34.20
2024-01-31T07:37:23.119Z,37.10
2024-01-31T07:42:29.407Z,35.10
2024-01-31T07:47:38.257Z,35.30
2024-01-31T07:52:44.010Z,30.80
2024-01-31T07:57:49.616Z,32.40
2024-01-31T08:02:55.373Z,34.10
2024-01-31T08:08:01.508Z,33.50
2024-01-31T08:13:07.640Z,36.20
2024-01-31T08:18:13.625Z,34.70
2024-01-31T08:23:19.330Z,31.60
2024-01-31T08:28:25.048Z,35.90
2024-01-31T08:33:32.117Z,34.50
2024-01-31T08:38:40.459Z,34.40
2024-01-31T08:43:46.120Z,37.40
2024-01-31T08:48:52.300Z,31.60
2024-01-31T08:53:58.608Z,34.20
2024-01-31T08:59:04.448Z,37.20
2024-01-31T09:04:09.979Z,31.70
2024-01-31T09:09:16.818Z,35.90
2024-01-31T09:14:22.568Z,31.40
2024-01-31T09:19:28.659Z,33.80
2024-01-31T09:24:34.454Z,29.50
2024-01-31T09:29:42.444Z,32.80
2024-01-31T09:34:52.253Z,35.30
2024-01-31T09:39:59.486Z,35.90
2024-01-31T09:45:07.215Z,33.40
2024-01-31T09:50:13.660Z,31.90
2024-01-31T09:55:20.639Z,30.50
2024-01-31T10:00:27.976Z,31.40
2024-01-31T10:05:34.322Z,29.40
2024-01-31T10:10:40.220Z,37.10
2024-01-31T10:15:46.512Z,31.00
2024-01-31T10:20:53.649Z,28.50
2024-01-31T10:25:59.641Z,30.00
2024-01-31T10:31:05.960Z,27.50
2024-01-31T10:46:27.183Z,32.40
2024-01-31T10:51:34.928Z,28.80
2024-01-31T10:56:41.021Z,27.10
2024-01-31T11:01:55.703Z,29.80
2024-01-31T11:07:04.280Z,30.10
2024-01-31T11:12:15.534Z,26.90
2024-01-31T11:22:34.956Z,26.30
2024-01-31T11:27:41.389Z,26.10
2024-01-31T11:32:47.280Z,32.50
2024-01-31T11:37:54.037Z,29.40
2024-01-31T11:42:59.653Z,29.10
2024-01-31T11:48:06.499Z,28.20
2024-01-31T11:53:13.928Z,26.50
2024-01-31T11:58:19.719Z,23.60
2024-01-31T12:03:26.325Z,27.20
2024-01-31T12:08:34.941Z,23.40
2024-01-31T12:13:41.393Z,24.40
2024-01-31T12:18:47.532Z,27.50
2024-01-31T12:23:53.499Z,25.80
2024-01-31T12:28:59.194Z,19.80
2024-01-31T12:34:05.157Z,21.60
2024-01-31T12:39:16.932Z,20.60
2024-01-31T12:44:23.918Z,23.90
2024-01-31T12:49:33.578Z,24.60
2024-01-31T12:54:39.357Z,23.90
2024-01-31T12:59:44.996Z,27.20
2024-01-31T13:04:56.337Z,18.20
2024-01-31T13:10:02.746Z,19.80
2024-01-31T13:15:10.213Z,21.50
2024-01-31T13:20:17.184Z,22.50
2024-01-31T13:25:22.740Z,22.10
2024-01-31T13:30:28.834Z,21.70
2024-01-31T13:35:35.377Z,20.80
2024-01-31T13:40:41.312Z,24.30
2024-01-31T13:45:47.063Z,22.00
2024-01-31T13:50:52.608Z,18.70
2024-01-31T13:55:58.364Z,18.00
2024-01-31T14:01:04.323Z,20.60
2024-01-31T14:06:10.429Z,22.00
2024-01-31T14:11:21.462Z,19.60
2024-01-31T14:16:29.143Z,17.60
2024-01-31T14:21:36.241Z,24.40
2024-01-31T14:26:42.187Z,25.60
2024-01-31T14:31:48.286Z,17.30
2024-01-31T14:36:53.790Z,15.80
2024-01-31T14:41:59.730Z,18.60
2024-01-31T14:47:05.750Z,17.10
2024-01-31T14:52:11.774Z,21.40
2024-01-31T14:57:17.632Z,20.30
2024-01-31T15:02:24.708Z,18.70
2024-01-31T15:07:31.500Z,20.20
2024-01-31T15:12:37.307Z,22.80
2024-01-31T15:17:43.309Z,19.50
2024-01-31T15:22:49.647Z,21.60
2024-01-31T15:27:55.519Z,20.50
2024-01-31T15:33:01.338Z,19.60
2024-01-31T15:38:07.151Z,19.20
2024-01-31T15:43:12.900Z,18.60
2024-01-31T15:48:18.836Z,20.90
2024-01-31T15:53:24.812Z,17.90
2024-01-31T15:58:32.313Z,19.70
2024-01-31T16:03:38.196Z,21.40
2024-01-31T16:08:44.010Z,16.90
2024-01-31T16:13:49.826Z,21.00
2024-01-31T16:18:55.511Z,19.50
2024-01-31T16:24:01.593Z,22.10
2024-01-31T16:29:07.617Z,18.50
2024-01-31T16:34:20.877Z,19.90
2024-01-31T16:39:26.547Z,22.70
2024-01-31T16:44:32.537Z,21.10
2024-01-31T16:49:38.520Z,18.60
2024-01-31T16:54:44.148Z,18.90
2024-01-31T16:59:50.086Z,18.90
2024-01-31T17:04:55.882Z,20.10
2024-01-31T17:10:02.004Z,18.20
2024-01-31T17:15:08.708Z,19.30
2024-01-31T17:20:14.952Z,16.90
2024-01-31T17:25:20.643Z,53.00
2024-01-31T17:30:26.404Z,26.70
2024-01-31T17:35:33.789Z,38.60
2024-01-31T17:40:39.539Z,22.60
2024-01-31T17:45:45.134Z,18.40
2024-01-31T17:50:50.985Z,23.70
2024-01-31T17:55:57.966Z,22.80
2024-01-31T18:01:03.757Z,25.00
2024-01-31T18:06:09.552Z,23.60
2024-01-31T18:11:15.661Z,19.50
2024-01-31T18:16:21.415Z,23.00
2024-01-31T18:21:32.737Z,16.80
2024-01-31T18:26:39.059Z,19.70
2024-01-31T18:31:52.046Z,23.90
2024-01-31T18:37:00.215Z,23.00
2024-01-31T18:42:07.389Z,22.30
2024-01-31T18:47:12.980Z,22.60
2024-01-31T18:52:18.794Z,24.10
2024-01-31T18:57:24.514Z,22.30
2024-01-31T19:02:30.699Z,21.10
2024-01-31T19:07:38.371Z,17.50
2024-01-31T19:12:43.939Z,21.30
2024-01-31T19:17:51.087Z,26.20
2024-01-31T19:22:57.734Z,16.50
2024-01-31T19:28:04.211Z,17.30
2024-01-31T19:33:10.119Z,19.10
2024-01-31T19:38:15.837Z,27.20
2024-01-31T19:43:23.150Z,22.90
2024-01-31T19:48:29.539Z,20.90
2024-01-31T19:53:45.531Z,23.10
2024-01-31T19:58:52.281Z,23.70
2024-01-31T20:04:00.581Z,22.10
2024-01-31T20:09:06.585Z,20.70
2024-01-31T20:14:14.797Z,20.60
2024-01-31T20:19:20.963Z,20.20
2024-01-31T20:24:28.744Z,17.60
2024-01-31T20:29:38.982Z,11.30
2024-01-31T20:34:48.578Z,12.30
2024-01-31T20:39:55.176Z,11.60
2024-01-31T20:45:00.761Z,15.30
2024-01-31T20:50:08.723Z,13.80
2024-01-31T20:55:14.968Z,10.50
2024-01-31T21:00:21.558Z,10.30
2024-01-31T21:05:29.264Z,9.90
2024-01-31T21:10:35.249Z,8.30
2024-01-31T21:15:40.786Z,10.20
2024-01-31T21:20:46.582Z,7.10
2024-01-31T21:25:52.124Z,7.90
2024-01-31T21:30:57.970Z,10.60
2024-01-31T21:36:03.836Z,11.20
2024-01-31T21:41:09.699Z,11.20
2024-01-31T21:46:15.307Z,11.10
2024-01-31T21:51:21.213Z,13.50
2024-01-31T21:56:27.458Z,13.20
2024-01-31T22:01:35.644Z,16.50
2024-01-31T22:06:41.372Z,13.20
2024-01-31T22:11:47.327Z,12.10
2024-01-31T22:16:52.977Z,13.90
2024-01-31T22:21:58.695Z,17.40
2024-01-31T22:27:05.135Z,15.10
2024-01-31T22:32:11.536Z,14.70
2024-01-31T22:37:17.789Z,12.60
2024-01-31T22:42:23.862Z,12.70
2024-01-31T22:47:31.086Z,13.20
2024-01-31T22:52:39.260Z,13.90
2024-01-31T22:57:45.007Z,11.60
2024-01-31T23:02:50.559Z,14.60
2024-01-31T23:07:56.733Z,14.70
2024-01-31T23:13:02.696Z,12.40
2024-01-31T23:18:11.123Z,12.90
2024-01-31T23:23:16.853Z,11.40
2024-01-31T23:28:22.625Z,13.20
2024-01-31T23:33:28.770Z,11.80
2024-01-31T23:38:35.608Z,14.80
2024-01-31T23:43:41.487Z,11.50
2024-01-31T23:48:47.935Z,11.80
2024-01-31T23:53:53.960Z,12.80
2024-01-31T23:58:59.588Z,15.50
